sensor_id;sensor_type;location;lat;lon;timestamp;P1;durP1;ratioP1;P2;durP2;ratioP2
12212;SDS011;6169;44.158;22.788;2023-08-20T00:01:25;6.60;;;5.35;;
12212;SDS011;6169;44.158;22.788;2023-08-20T00:06:28;7.47;;;4.72;;
12212;SDS011;6169;44.158;22.788;2023-08-20T00:11:32;8.88;;;5.47;;
12212;SDS011;6169;44.158;22.788;2023-08-20T00:16:35;7.30;;;5.63;;
12212;SDS011;6169;44.158;22.788;2023-08-20T00:21:39;8.13;;;5.57;;
12212;SDS011;6169;44.158;22.788;2023-08-20T00:26:44;7.88;;;5.60;;
12212;SDS011;6169;44.158;22.788;2023-08-20T00:31:46;8.98;;;5.78;;
12212;SDS011;6169;44.158;22.788;2023-08-20T00:36:49;8.48;;;5.57;;
12212;SDS011;6169;44.158;22.788;2023-08-20T00:41:52;7.57;;;5.63;;
12212;SDS011;6169;44.158;22.788;2023-08-20T00:46:55;6.88;;;5.13;;
12212;SDS011;6169;44.158;22.788;2023-08-20T00:51:57;8.13;;;5.65;;
12212;SDS011;6169;44.158;22.788;2023-08-20T00:57:03;13.00;;;5.68;;
12212;SDS011;6169;44.158;22.788;2023-08-20T01:02:06;8.30;;;5.60;;
12212;SDS011;6169;44.158;22.788;2023-08-20T01:07:10;9.25;;;5.63;;
12212;SDS011;6169;44.158;22.788;2023-08-20T01:12:21;9.93;;;5.45;;
12212;SDS011;6169;44.158;22.788;2023-08-20T01:17:26;7.30;;;5.32;;
12212;SDS011;6169;44.158;22.788;2023-08-20T01:22:48;8.48;;;6.00;;
12212;SDS011;6169;44.158;22.788;2023-08-20T01:33:25;8.68;;;6.13;;
12212;SDS011;6169;44.158;22.788;2023-08-20T01:38:27;9.05;;;6.75;;
12212;SDS011;6169;44.158;22.788;2023-08-20T01:43:31;9.40;;;6.78;;
12212;SDS011;6169;44.158;22.788;2023-08-20T01:48:33;7.90;;;6.47;;
12212;SDS011;6169;44.158;22.788;2023-08-20T01:53:35;14.05;;;6.78;;
12212;SDS011;6169;44.158;22.788;2023-08-20T01:58:39;9.15;;;6.40;;
12212;SDS011;6169;44.158;22.788;2023-08-20T02:03:41;9.48;;;5.85;;
12212;SDS011;6169;44.158;22.788;2023-08-20T02:08:43;8.93;;;5.53;;
12212;SDS011;6169;44.158;22.788;2023-08-20T02:13:47;7.95;;;5.78;;
12212;SDS011;6169;44.158;22.788;2023-08-20T02:18:49;10.52;;;5.43;;
12212;SDS011;6169;44.158;22.788;2023-08-20T02:23:51;9.10;;;5.65;;
12212;SDS011;6169;44.158;22.788;2023-08-20T02:28:55;7.35;;;5.45;;
12212;SDS011;6169;44.158;22.788;2023-08-20T02:33:57;8.85;;;5.72;;
12212;SDS011;6169;44.158;22.788;2023-08-20T02:38:59;6.50;;;5.40;;
12212;SDS011;6169;44.158;22.788;2023-08-20T02:44:05;7.50;;;6.10;;
12212;SDS011;6169;44.158;22.788;2023-08-20T02:49:07;7.32;;;5.95;;
12212;SDS011;6169;44.158;22.788;2023-08-20T02:54:10;7.93;;;5.30;;
12212;SDS011;6169;44.158;22.788;2023-08-20T02:59:13;7.85;;;6.40;;
12212;SDS011;6169;44.158;22.788;2023-08-20T03:04:16;7.63;;;5.65;;
12212;SDS011;6169;44.158;22.788;2023-08-20T03:09:19;8.93;;;5.30;;
12212;SDS011;6169;44.158;22.788;2023-08-20T03:14:22;8.13;;;5.15;;
12212;SDS011;6169;44.158;22.788;2023-08-20T03:19:24;6.60;;;5.68;;
12212;SDS011;6169;44.158;22.788;2023-08-20T03:24:26;13.90;;;5.82;;
12212;SDS011;6169;44.158;22.788;2023-08-20T03:29:30;9.95;;;5.65;;
12212;SDS011;6169;44.158;22.788;2023-08-20T03:34:32;7.85;;;5.57;;
12212;SDS011;6169;44.158;22.788;2023-08-20T03:39:34;7.82;;;5.32;;
12212;SDS011;6169;44.158;22.788;2023-08-20T03:44:38;8.82;;;5.68;;
12212;SDS011;6169;44.158;22.788;2023-08-20T03:49:40;8.43;;;5.75;;
12212;SDS011;6169;44.158;22.788;2023-08-20T03:54:42;6.63;;;5.20;;
12212;SDS011;6169;44.158;22.788;2023-08-20T03:59:46;6.43;;;4.50;;
12212;SDS011;6169;44.158;22.788;2023-08-20T04:04:48;9.85;;;5.93;;
12212;SDS011;6169;44.158;22.788;2023-08-20T04:09:50;6.53;;;5.28;;
12212;SDS011;6169;44.158;22.788;2023-08-20T04:14:54;15.80;;;6.07;;
12212;SDS011;6169;44.158;22.788;2023-08-20T04:19:56;8.73;;;6.15;;
12212;SDS011;6169;44.158;22.788;2023-08-20T04:24:58;9.40;;;5.53;;
12212;SDS011;6169;44.158;22.788;2023-08-20T04:30:02;12.00;;;6.28;;
12212;SDS011;6169;44.158;22.788;2023-08-20T04:35:05;7.95;;;5.97;;
12212;SDS011;6169;44.158;22.788;2023-08-20T04:40:08;8.07;;;5.72;;
12212;SDS011;6169;44.158;22.788;2023-08-20T04:45:12;11.55;;;5.63;;
12212;SDS011;6169;44.158;22.788;2023-08-20T04:50:17;13.57;;;6.72;;
12212;SDS011;6169;44.158;22.788;2023-08-20T04:55:19;6.88;;;5.80;;
12212;SDS011;6169;44.158;22.788;2023-08-20T05:00:22;7.63;;;5.53;;
12212;SDS011;6169;44.158;22.788;2023-08-20T05:05:25;11.80;;;5.88;;
12212;SDS011;6169;44.158;22.788;2023-08-20T05:10:27;6.18;;;5.00;;
12212;SDS011;6169;44.158;22.788;2023-08-20T05:15:31;8.18;;;5.60;;
12212;SDS011;6169;44.158;22.788;2023-08-20T05:20:33;8.75;;;5.15;;
12212;SDS011;6169;44.158;22.788;2023-08-20T05:25:35;5.65;;;4.57;;
12212;SDS011;6169;44.158;22.788;2023-08-20T05:30:39;13.30;;;5.75;;
12212;SDS011;6169;44.158;22.788;2023-08-20T05:35:41;7.63;;;5.20;;
12212;SDS011;6169;44.158;22.788;2023-08-20T05:40:45;6.60;;;5.65;;
12212;SDS011;6169;44.158;22.788;2023-08-20T05:45:49;9.38;;;5.53;;
12212;SDS011;6169;44.158;22.788;2023-08-20T05:50:51;11.18;;;6.03;;
12212;SDS011;6169;44.158;22.788;2023-08-20T05:55:53;6.60;;;5.95;;
12212;SDS011;6169;44.158;22.788;2023-08-20T06:00:57;9.30;;;6.10;;
12212;SDS011;6169;44.158;22.788;2023-08-20T06:05:59;9.75;;;6.13;;
12212;SDS011;6169;44.158;22.788;2023-08-20T06:11:02;6.05;;;5.50;;
12212;SDS011;6169;44.158;22.788;2023-08-20T06:16:06;9.25;;;5.68;;
12212;SDS011;6169;44.158;22.788;2023-08-20T06:21:09;19.85;;;6.28;;
12212;SDS011;6169;44.158;22.788;2023-08-20T06:26:13;8.80;;;5.45;;
12212;SDS011;6169;44.158;22.788;2023-08-20T06:31:16;7.38;;;6.07;;
12212;SDS011;6169;44.158;22.788;2023-08-20T06:36:19;7.13;;;5.32;;
12212;SDS011;6169;44.158;22.788;2023-08-20T06:41:21;12.55;;;6.13;;
12212;SDS011;6169;44.158;22.788;2023-08-20T06:46:25;10.32;;;6.05;;
12212;SDS011;6169;44.158;22.788;2023-08-20T06:51:28;6.82;;;5.57;;
12212;SDS011;6169;44.158;22.788;2023-08-20T06:56:30;10.48;;;6.47;;
12212;SDS011;6169;44.158;22.788;2023-08-20T07:01:33;8.77;;;5.75;;
12212;SDS011;6169;44.158;22.788;2023-08-20T07:06:36;10.52;;;5.95;;
12212;SDS011;6169;44.158;22.788;2023-08-20T07:11:38;8.98;;;6.47;;
12212;SDS011;6169;44.158;22.788;2023-08-20T07:16:41;7.30;;;5.25;;
12212;SDS011;6169;44.158;22.788;2023-08-20T07:21:44;9.32;;;5.80;;
12212;SDS011;6169;44.158;22.788;2023-08-20T07:26:46;7.00;;;5.88;;
12212;SDS011;6169;44.158;22.788;2023-08-20T07:31:50;6.68;;;5.75;;
12212;SDS011;6169;44.158;22.788;2023-08-20T07:36:52;9.50;;;5.78;;
12212;SDS011;6169;44.158;22.788;2023-08-20T07:41:54;8.52;;;5.55;;
12212;SDS011;6169;44.158;22.788;2023-08-20T07:46:58;9.07;;;5.18;;
12212;SDS011;6169;44.158;22.788;2023-08-20T07:52:00;14.80;;;6.72;;
12212;SDS011;6169;44.158;22.788;2023-08-20T07:57:02;7.63;;;5.80;;
12212;SDS011;6169;44.158;22.788;2023-08-20T08:02:06;7.65;;;4.97;;
12212;SDS011;6169;44.158;22.788;2023-08-20T08:07:08;6.72;;;5.78;;
12212;SDS011;6169;44.158;22.788;2023-08-20T08:12:11;6.78;;;5.72;;
12212;SDS011;6169;44.158;22.788;2023-08-20T08:17:15;12.25;;;7.22;;
12212;SDS011;6169;44.158;22.788;2023-08-20T08:22:17;12.77;;;5.75;;
12212;SDS011;6169;44.158;22.788;2023-08-20T08:27:20;7.22;;;6.35;;
12212;SDS011;6169;44.158;22.788;2023-08-20T08:32:24;6.82;;;6.10;;
12212;SDS011;6169;44.158;22.788;2023-08-20T08:37:26;8.45;;;6.13;;
12212;SDS011;6169;44.158;22.788;2023-08-20T08:42:28;9.65;;;5.32;;
12212;SDS011;6169;44.158;22.788;2023-08-20T08:47:32;7.45;;;5.63;;
12212;SDS011;6169;44.158;22.788;2023-08-20T08:52:36;7.55;;;5.32;;
12212;SDS011;6169;44.158;22.788;2023-08-20T08:57:41;8.23;;;5.63;;
12212;SDS011;6169;44.158;22.788;2023-08-20T09:02:44;9.90;;;5.18;;
12212;SDS011;6169;44.158;22.788;2023-08-20T09:07:47;9.45;;;5.45;;
12212;SDS011;6169;44.158;22.788;2023-08-20T09:12:57;9.48;;;5.40;;
12212;SDS011;6169;44.158;22.788;2023-08-20T09:18:02;7.18;;;5.13;;
12212;SDS011;6169;44.158;22.788;2023-08-20T09:23:10;8.27;;;5.40;;
12212;SDS011;6169;44.158;22.788;2023-08-20T09:33:17;14.23;;;4.85;;
12212;SDS011;6169;44.158;22.788;2023-08-20T09:38:19;14.02;;;5.60;;
12212;SDS011;6169;44.158;22.788;2023-08-20T09:43:23;10.85;;;6.68;;
12212;SDS011;6169;44.158;22.788;2023-08-20T09:48:31;9.13;;;6.25;;
12212;SDS011;6169;44.158;22.788;2023-08-20T09:53:37;6.53;;;5.47;;
12212;SDS011;6169;44.158;22.788;2023-08-20T09:58:43;7.63;;;5.97;;
12212;SDS011;6169;44.158;22.788;2023-08-20T10:03:47;7.47;;;5.40;;
12212;SDS011;6169;44.158;22.788;2023-08-20T10:08:50;7.43;;;5.60;;
12212;SDS011;6169;44.158;22.788;2023-08-20T10:13:55;6.47;;;5.50;;
12212;SDS011;6169;44.158;22.788;2023-08-20T10:19:02;8.48;;;6.43;;
12212;SDS011;6169;44.158;22.788;2023-08-20T10:24:06;8.68;;;5.13;;
12212;SDS011;6169;44.158;22.788;2023-08-20T10:34:42;9.75;;;5.30;;
12212;SDS011;6169;44.158;22.788;2023-08-20T10:39:53;8.18;;;5.80;;
12212;SDS011;6169;44.158;22.788;2023-08-20T10:44:56;11.50;;;5.55;;
12212;SDS011;6169;44.158;22.788;2023-08-20T10:50:01;9.13;;;6.13;;
12212;SDS011;6169;44.158;22.788;2023-08-20T10:55:04;9.40;;;5.53;;
12212;SDS011;6169;44.158;22.788;2023-08-20T11:00:09;8.13;;;6.03;;
12212;SDS011;6169;44.158;22.788;2023-08-20T11:05:19;11.18;;;5.45;;
12212;SDS011;6169;44.158;22.788;2023-08-20T11:10:22;8.30;;;5.88;;
12212;SDS011;6169;44.158;22.788;2023-08-20T11:15:25;7.43;;;5.97;;
12212;SDS011;6169;44.158;22.788;2023-08-20T11:20:30;6.82;;;6.18;;
12212;SDS011;6169;44.158;22.788;2023-08-20T11:25:32;10.10;;;6.18;;
12212;SDS011;6169;44.158;22.788;2023-08-20T11:30:35;10.20;;;5.90;;
12212;SDS011;6169;44.158;22.788;2023-08-20T11:35:39;5.95;;;5.32;;
12212;SDS011;6169;44.158;22.788;2023-08-20T11:40:43;7.15;;;5.20;;
12212;SDS011;6169;44.158;22.788;2023-08-20T11:45:46;9.05;;;5.63;;
12212;SDS011;6169;44.158;22.788;2023-08-20T11:50:50;10.75;;;4.95;;
12212;SDS011;6169;44.158;22.788;2023-08-20T11:55:53;7.88;;;5.38;;
12212;SDS011;6169;44.158;22.788;2023-08-20T12:00:55;8.05;;;5.65;;
12212;SDS011;6169;44.158;22.788;2023-08-20T12:05:59;6.35;;;4.60;;
12212;SDS011;6169;44.158;22.788;2023-08-20T12:11:23;9.68;;;5.65;;
12212;SDS011;6169;44.158;22.788;2023-08-20T12:16:26;6.50;;;5.00;;
12212;SDS011;6169;44.158;22.788;2023-08-20T12:21:30;9.80;;;5.47;;
12212;SDS011;6169;44.158;22.788;2023-08-20T12:26:32;7.97;;;5.30;;
12212;SDS011;6169;44.158;22.788;2023-08-20T12:31:35;6.53;;;5.18;;
12212;SDS011;6169;44.158;22.788;2023-08-20T12:36:39;9.48;;;5.15;;
12212;SDS011;6169;44.158;22.788;2023-08-20T12:41:41;10.93;;;4.95;;
12212;SDS011;6169;44.158;22.788;2023-08-20T12:46:44;4.88;;;4.47;;
12212;SDS011;6169;44.158;22.788;2023-08-20T12:51:48;7.10;;;5.15;;
12212;SDS011;6169;44.158;22.788;2023-08-20T12:56:50;7.45;;;5.63;;
12212;SDS011;6169;44.158;22.788;2023-08-20T13:01:53;9.63;;;6.97;;
12212;SDS011;6169;44.158;22.788;2023-08-20T13:06:57;6.32;;;4.88;;
12212;SDS011;6169;44.158;22.788;2023-08-20T13:12:00;6.70;;;4.22;;
12212;SDS011;6169;44.158;22.788;2023-08-20T13:17:04;8.70;;;4.63;;
12212;SDS011;6169;44.158;22.788;2023-08-20T13:22:09;5.28;;;4.20;;
12212;SDS011;6169;44.158;22.788;2023-08-20T13:27:11;8.77;;;3.95;;
12212;SDS011;6169;44.158;22.788;2023-08-20T13:32:14;9.75;;;4.65;;
12212;SDS011;6169;44.158;22.788;2023-08-20T13:37:18;5.05;;;3.38;;
12212;SDS011;6169;44.158;22.788;2023-08-20T13:42:20;3.92;;;3.13;;
12212;SDS011;6169;44.158;22.788;2023-08-20T13:47:22;5.15;;;3.15;;
12212;SDS011;6169;44.158;22.788;2023-08-20T13:52:26;4.57;;;4.15;;
12212;SDS011;6169;44.158;22.788;2023-08-20T13:57:29;4.30;;;3.53;;
12212;SDS011;6169;44.158;22.788;2023-08-20T14:02:31;3.50;;;3.05;;
12212;SDS011;6169;44.158;22.788;2023-08-20T14:07:35;4.15;;;3.42;;
12212;SDS011;6169;44.158;22.788;2023-08-20T14:12:38;3.00;;;2.72;;
12212;SDS011;6169;44.158;22.788;2023-08-20T14:17:40;6.95;;;3.90;;
12212;SDS011;6169;44.158;22.788;2023-08-20T14:22:44;4.05;;;3.50;;
12212;SDS011;6169;44.158;22.788;2023-08-20T14:27:46;4.00;;;2.95;;
12212;SDS011;6169;44.158;22.788;2023-08-20T14:32:49;4.00;;;2.22;;
12212;SDS011;6169;44.158;22.788;2023-08-20T14:37:53;8.63;;;3.30;;
12212;SDS011;6169;44.158;22.788;2023-08-20T14:42:55;6.15;;;2.60;;
12212;SDS011;6169;44.158;22.788;2023-08-20T14:47:58;4.95;;;3.20;;
12212;SDS011;6169;44.158;22.788;2023-08-20T14:53:02;3.63;;;3.22;;
12212;SDS011;6169;44.158;22.788;2023-08-20T14:58:04;3.70;;;2.88;;
12212;SDS011;6169;44.158;22.788;2023-08-20T15:03:07;8.13;;;3.03;;
12212;SDS011;6169;44.158;22.788;2023-08-20T15:08:11;4.25;;;3.08;;
12212;SDS011;6169;44.158;22.788;2023-08-20T15:13:13;7.70;;;3.20;;
12212;SDS011;6169;44.158;22.788;2023-08-20T15:18:16;6.80;;;3.25;;
12212;SDS011;6169;44.158;22.788;2023-08-20T15:23:20;3.88;;;3.58;;
12212;SDS011;6169;44.158;22.788;2023-08-20T15:28:22;5.70;;;3.08;;
12212;SDS011;6169;44.158;22.788;2023-08-20T15:33:25;4.15;;;3.17;;
12212;SDS011;6169;44.158;22.788;2023-08-20T15:38:30;3.67;;;2.88;;
12212;SDS011;6169;44.158;22.788;2023-08-20T15:43:32;5.47;;;3.22;;
12212;SDS011;6169;44.158;22.788;2023-08-20T15:48:34;5.18;;;3.50;;
12212;SDS011;6169;44.158;22.788;2023-08-20T15:53:38;3.45;;;3.17;;
12212;SDS011;6169;44.158;22.788;2023-08-20T15:58:40;3.55;;;3.20;;
12212;SDS011;6169;44.158;22.788;2023-08-20T16:03:43;4.00;;;3.40;;
12212;SDS011;6169;44.158;22.788;2023-08-20T16:08:47;3.10;;;2.80;;
12212;SDS011;6169;44.158;22.788;2023-08-20T16:13:49;8.30;;;3.45;;
12212;SDS011;6169;44.158;22.788;2023-08-20T16:18:51;5.07;;;3.63;;
12212;SDS011;6169;44.158;22.788;2023-08-20T16:23:55;9.82;;;3.65;;
12212;SDS011;6169;44.158;22.788;2023-08-20T16:28:58;5.10;;;3.72;;
12212;SDS011;6169;44.158;22.788;2023-08-20T16:34:00;7.55;;;3.83;;
12212;SDS011;6169;44.158;22.788;2023-08-20T16:39:04;6.43;;;4.32;;
12212;SDS011;6169;44.158;22.788;2023-08-20T16:44:06;5.85;;;3.30;;
12212;SDS011;6169;44.158;22.788;2023-08-20T16:49:09;5.45;;;3.85;;
12212;SDS011;6169;44.158;22.788;2023-08-20T16:54:13;5.95;;;5.13;;
12212;SDS011;6169;44.158;22.788;2023-08-20T16:59:15;7.38;;;4.35;;
12212;SDS011;6169;44.158;22.788;2023-08-20T17:04:18;7.35;;;4.95;;
12212;SDS011;6169;44.158;22.788;2023-08-20T17:09:22;5.43;;;4.28;;
12212;SDS011;6169;44.158;22.788;2023-08-20T17:14:24;9.38;;;6.43;;
12212;SDS011;6169;44.158;22.788;2023-08-20T17:19:27;8.73;;;5.55;;
12212;SDS011;6169;44.158;22.788;2023-08-20T17:24:31;15.95;;;10.50;;
12212;SDS011;6169;44.158;22.788;2023-08-20T17:29:33;30.25;;;22.13;;
12212;SDS011;6169;44.158;22.788;2023-08-20T17:34:35;25.48;;;19.80;;
12212;SDS011;6169;44.158;22.788;2023-08-20T17:39:39;28.35;;;21.50;;
12212;SDS011;6169;44.158;22.788;2023-08-20T17:44:41;23.27;;;16.48;;
12212;SDS011;6169;44.158;22.788;2023-08-20T17:49:44;18.45;;;13.90;;
12212;SDS011;6169;44.158;22.788;2023-08-20T17:54:47;9.60;;;7.45;;
12212;SDS011;6169;44.158;22.788;2023-08-20T17:59:50;12.05;;;7.20;;
12212;SDS011;6169;44.158;22.788;2023-08-20T18:04:52;7.28;;;6.35;;
12212;SDS011;6169;44.158;22.788;2023-08-20T18:09:57;10.23;;;5.88;;
12212;SDS011;6169;44.158;22.788;2023-08-20T18:14:59;10.07;;;6.00;;
12212;SDS011;6169;44.158;22.788;2023-08-20T18:20:01;7.90;;;6.18;;
12212;SDS011;6169;44.158;22.788;2023-08-20T18:25:06;11.40;;;6.50;;
12212;SDS011;6169;44.158;22.788;2023-08-20T18:30:09;11.60;;;7.93;;
12212;SDS011;6169;44.158;22.788;2023-08-20T18:35:12;20.50;;;12.23;;
12212;SDS011;6169;44.158;22.788;2023-08-20T18:40:16;25.25;;;11.48;;
12212;SDS011;6169;44.158;22.788;2023-08-20T18:45:18;17.08;;;12.13;;
12212;SDS011;6169;44.158;22.788;2023-08-20T18:50:20;14.25;;;8.65;;
12212;SDS011;6169;44.158;22.788;2023-08-20T18:55:24;10.02;;;6.57;;
12212;SDS011;6169;44.158;22.788;2023-08-20T19:00:26;11.45;;;6.15;;
12212;SDS011;6169;44.158;22.788;2023-08-20T19:05:29;8.25;;;6.13;;
12212;SDS011;6169;44.158;22.788;2023-08-20T19:10:33;6.55;;;5.85;;
12212;SDS011;6169;44.158;22.788;2023-08-20T19:15:45;6.97;;;5.40;;
12212;SDS011;6169;44.158;22.788;2023-08-20T19:20:48;9.38;;;7.40;;
12212;SDS011;6169;44.158;22.788;2023-08-20T19:25:53;7.75;;;6.30;;
12212;SDS011;6169;44.158;22.788;2023-08-20T19:30:55;6.47;;;5.78;;
12212;SDS011;6169;44.158;22.788;2023-08-20T19:35:57;6.65;;;5.70;;
12212;SDS011;6169;44.158;22.788;2023-08-20T19:41:02;7.90;;;5.45;;
12212;SDS011;6169;44.158;22.788;2023-08-20T19:46:04;11.65;;;7.10;;
12212;SDS011;6169;44.158;22.788;2023-08-20T19:51:06;8.23;;;6.70;;
12212;SDS011;6169;44.158;22.788;2023-08-20T19:56:10;11.77;;;8.23;;
12212;SDS011;6169;44.158;22.788;2023-08-20T20:01:13;12.95;;;7.63;;
12212;SDS011;6169;44.158;22.788;2023-08-20T20:06:15;11.02;;;7.45;;
12212;SDS011;6169;44.158;22.788;2023-08-20T20:11:19;24.27;;;16.17;;
12212;SDS011;6169;44.158;22.788;2023-08-20T20:16:21;29.38;;;17.90;;
12212;SDS011;6169;44.158;22.788;2023-08-20T20:21:24;27.95;;;19.40;;
12212;SDS011;6169;44.158;22.788;2023-08-20T20:26:27;12.68;;;8.48;;
12212;SDS011;6169;44.158;22.788;2023-08-20T20:31:30;7.75;;;6.40;;
12212;SDS011;6169;44.158;22.788;2023-08-20T20:36:32;7.68;;;6.32;;
12212;SDS011;6169;44.158;22.788;2023-08-20T20:41:36;11.30;;;6.78;;
12212;SDS011;6169;44.158;22.788;2023-08-20T20:46:39;9.65;;;7.22;;
12212;SDS011;6169;44.158;22.788;2023-08-20T20:51:41;10.05;;;7.35;;
12212;SDS011;6169;44.158;22.788;2023-08-20T20:56:45;11.07;;;8.35;;
12212;SDS011;6169;44.158;22.788;2023-08-20T21:01:47;12.90;;;8.18;;
12212;SDS011;6169;44.158;22.788;2023-08-20T21:06:49;12.57;;;8.88;;
12212;SDS011;6169;44.158;22.788;2023-08-20T21:11:53;15.35;;;11.25;;
12212;SDS011;6169;44.158;22.788;2023-08-20T21:16:55;15.75;;;10.35;;
12212;SDS011;6169;44.158;22.788;2023-08-20T21:22:02;17.23;;;9.18;;
12212;SDS011;6169;44.158;22.788;2023-08-20T21:27:13;11.88;;;8.98;;
12212;SDS011;6169;44.158;22.788;2023-08-20T21:32:15;11.90;;;9.38;;
12212;SDS011;6169;44.158;22.788;2023-08-20T21:37:17;9.48;;;8.50;;
12212;SDS011;6169;44.158;22.788;2023-08-20T21:42:21;8.90;;;8.00;;
12212;SDS011;6169;44.158;22.788;2023-08-20T21:47:25;13.10;;;7.97;;
12212;SDS011;6169;44.158;22.788;2023-08-20T21:52:27;10.30;;;7.55;;
12212;SDS011;6169;44.158;22.788;2023-08-20T21:57:31;12.65;;;9.77;;
12212;SDS011;6169;44.158;22.788;2023-08-20T22:02:33;10.15;;;7.47;;
12212;SDS011;6169;44.158;22.788;2023-08-20T22:07:35;9.23;;;8.30;;
12212;SDS011;6169;44.158;22.788;2023-08-20T22:12:39;9.82;;;7.88;;
12212;SDS011;6169;44.158;22.788;2023-08-20T22:17:41;8.65;;;7.75;;
12212;SDS011;6169;44.158;22.788;2023-08-20T22:22:43;8.77;;;7.30;;
12212;SDS011;6169;44.158;22.788;2023-08-20T22:27:47;8.05;;;6.93;;
12212;SDS011;6169;44.158;22.788;2023-08-20T22:32:49;8.05;;;7.25;;
12212;SDS011;6169;44.158;22.788;2023-08-20T22:38:01;11.27;;;7.30;;
12212;SDS011;6169;44.158;22.788;2023-08-20T22:43:08;7.75;;;6.75;;
12212;SDS011;6169;44.158;22.788;2023-08-20T22:48:10;6.75;;;6.05;;
12212;SDS011;6169;44.158;22.788;2023-08-20T22:53:13;13.13;;;6.88;;
12212;SDS011;6169;44.158;22.788;2023-08-20T22:58:16;11.40;;;6.43;;
12212;SDS011;6169;44.158;22.788;2023-08-20T23:03:18;12.05;;;10.18;;
12212;SDS011;6169;44.158;22.788;2023-08-20T23:08:21;12.05;;;7.22;;
12212;SDS011;6169;44.158;22.788;2023-08-20T23:13:24;6.72;;;5.97;;
12212;SDS011;6169;44.158;22.788;2023-08-20T23:18:26;9.32;;;6.22;;
12212;SDS011;6169;44.158;22.788;2023-08-20T23:23:28;11.75;;;8.43;;
12212;SDS011;6169;44.158;22.788;2023-08-20T23:28:32;7.07;;;6.28;;
12212;SDS011;6169;44.158;22.788;2023-08-20T23:33:34;9.43;;;6.68;;
12212;SDS011;6169;44.158;22.788;2023-08-20T23:38:37;6.85;;;6.15;;
12212;SDS011;6169;44.158;22.788;2023-08-20T23:43:41;8.27;;;6.45;;
12212;SDS011;6169;44.158;22.788;2023-08-20T23:48:43;8.30;;;6.88;;
12212;SDS011;6169;44.158;22.788;2023-08-20T23:53:45;6.68;;;5.88;;
12212;SDS011;6169;44.158;22.788;2023-08-20T23:58:49;7.25;;;6.53;;
